createdAt,value
2023-04-06T00:01:06.758Z,0.44
2023-04-06T00:03:34.728Z,1.15
2023-04-06T00:06:02.768Z,0.55
2023-04-06T00:08:30.749Z,1.06
2023-04-06T00:11:00.059Z,1.04
2023-04-06T00:13:28.058Z,1.05
2023-04-06T00:15:56.139Z,1.01
2023-04-06T00:18:24.448Z,0.80
2023-04-06T00:20:52.492Z,1.09
2023-04-06T00:23:20.630Z,0.87
2023-04-06T00:25:48.601Z,0.79
2023-04-06T00:28:18.159Z,0.94
2023-04-06T00:30:46.258Z,0.93
2023-04-06T00:33:14.325Z,1.04
2023-04-06T00:35:42.427Z,0.86
2023-04-06T00:38:10.424Z,1.00
2023-04-06T00:40:40.478Z,-1.05
2023-04-06T00:43:09.921Z,0.76
2023-04-06T00:45:40.791Z,0.76
2023-04-06T00:48:09.445Z,0.72
2023-04-06T00:50:37.759Z,0.72
2023-04-06T00:53:06.134Z,0.74
2023-04-06T00:55:35.415Z,0.63
2023-04-06T00:58:03.408Z,0.80
2023-04-06T01:00:36.828Z,0.83
2023-04-06T01:03:07.921Z,0.60
2023-04-06T01:05:43.187Z,0.91
2023-04-06T01:08:18.961Z,0.55
2023-04-06T01:10:47.861Z,0.42
2023-04-06T01:13:28.228Z,0.54
2023-04-06T01:16:01.268Z,0.52
2023-04-06T01:18:49.727Z,0.32
2023-04-06T01:21:21.441Z,0.43
2023-04-06T01:24:26.361Z,0.33
2023-04-06T01:27:13.390Z,0.46
2023-04-06T01:30:03.081Z,0.21
2023-04-06T01:33:00.444Z,0.20
2023-04-06T01:35:43.548Z,0.37
2023-04-06T01:38:15.823Z,0.41
2023-04-06T01:40:46.636Z,0.38
2023-04-06T01:43:15.671Z,0.39
2023-04-06T01:46:09.782Z,0.49
2023-04-06T01:48:41.490Z,0.35
2023-04-06T01:51:19.191Z,0.24
2023-04-06T01:54:12.930Z,0.18
2023-04-06T01:57:00.950Z,-0.07
2023-04-06T01:59:54.868Z,0.19
2023-04-06T02:02:29.074Z,0.24
2023-04-06T02:05:08.528Z,0.25
2023-04-06T02:07:37.676Z,0.18
2023-04-06T02:10:12.801Z,0.03
2023-04-06T02:12:42.530Z,0.18
2023-04-06T02:15:15.462Z,0.18
2023-04-06T02:17:44.696Z,0.15
2023-04-06T02:20:13.005Z,0.10
2023-04-06T02:22:41.216Z,-0.01
2023-04-06T02:25:10.072Z,-0.17
2023-04-06T02:27:38.141Z,0.18
2023-04-06T02:30:09.644Z,0.23
2023-04-06T02:32:37.977Z,0.00
2023-04-06T02:35:07.066Z,0.02
2023-04-06T02:37:36.429Z,-0.05
2023-04-06T02:40:04.929Z,-0.33
2023-04-06T02:42:33.813Z,-0.14
2023-04-06T02:45:01.902Z,-0.01
2023-04-06T02:47:36.155Z,-0.23
2023-04-06T02:50:05.519Z,-0.70
2023-04-06T02:52:36.642Z,-0.26
2023-04-06T02:55:06.066Z,-0.49
2023-04-06T02:57:34.038Z,-0.41
2023-04-06T03:00:02.096Z,-0.49
2023-04-06T03:02:39.878Z,-0.09
2023-04-06T03:05:11.653Z,-0.11
2023-04-06T03:07:43.391Z,0.03
2023-04-06T03:10:18.107Z,-0.27
2023-04-06T03:12:48.006Z,-0.17
2023-04-06T03:15:23.261Z,-0.30
2023-04-06T03:18:02.234Z,-0.22
2023-04-06T03:20:38.848Z,-0.17
2023-04-06T03:23:06.986Z,-0.09
2023-04-06T03:25:40.546Z,-0.09
2023-04-06T03:28:11.022Z,-0.27
2023-04-06T03:30:48.581Z,-0.08
2023-04-06T03:33:21.800Z,0.12
2023-04-06T03:35:55.005Z,0.17
2023-04-06T03:38:25.947Z,0.07
2023-04-06T03:40:54.844Z,-0.06
2023-04-06T03:43:26.613Z,0.06
2023-04-06T03:45:55.049Z,0.08
2023-04-06T03:48:24.408Z,-0.03
2023-04-06T03:50:52.307Z,0.03
2023-04-06T03:53:20.255Z,-0.10
2023-04-06T03:55:48.150Z,-0.10
2023-04-06T03:58:16.234Z,-0.21
2023-04-06T04:00:44.177Z,-0.16
2023-04-06T04:03:12.206Z,-0.37
2023-04-06T04:05:41.646Z,-0.45
2023-04-06T04:08:10.485Z,-0.40
2023-04-06T04:10:38.419Z,-0.47
2023-04-06T04:13:06.346Z,-0.78
2023-04-06T04:15:34.454Z,-0.46
2023-04-06T04:18:02.500Z,-0.53
2023-04-06T04:20:30.663Z,-0.47
2023-04-06T04:22:59.925Z,-0.91
2023-04-06T04:25:30.836Z,-0.59
2023-04-06T04:27:58.809Z,-0.39
2023-04-06T04:30:26.772Z,-0.36
2023-04-06T04:32:54.943Z,-0.37
2023-04-06T04:35:24.918Z,-0.43
2023-04-06T04:37:53.068Z,-0.35
2023-04-06T04:40:22.514Z,-0.38
2023-04-06T04:42:59.487Z,-0.37
2023-04-06T04:45:33.557Z,-0.71
2023-04-06T04:48:09.793Z,-0.60
2023-04-06T04:50:49.351Z,-0.28
2023-04-06T04:53:19.001Z,-0.04
2023-04-06T04:55:49.197Z,-0.59
2023-04-06T04:58:19.896Z,-0.25
2023-04-06T05:00:59.784Z,-0.36
2023-04-06T05:03:29.189Z,-0.42
2023-04-06T05:06:03.806Z,-0.85
2023-04-06T05:08:35.765Z,-0.41
2023-04-06T05:11:05.526Z,-0.52
2023-04-06T05:13:40.998Z,-0.38
2023-04-06T05:16:14.977Z,-0.41
2023-04-06T05:18:43.141Z,-0.57
2023-04-06T05:21:12.651Z,-0.33
2023-04-06T05:24:03.033Z,-0.18
2023-04-06T05:26:34.580Z,-0.16
2023-04-06T05:29:08.985Z,0.13
2023-04-06T05:31:39.362Z,0.09
2023-04-06T05:34:07.533Z,0.18
2023-04-06T05:36:38.381Z,0.31
2023-04-06T05:39:15.423Z,0.28
2023-04-06T05:41:51.971Z,0.23
2023-04-06T05:44:31.187Z,0.13
2023-04-06T05:47:08.352Z,0.36
2023-04-06T05:49:38.597Z,0.33
2023-04-06T05:52:11.838Z,0.42
2023-04-06T05:54:41.209Z,-0.36
2023-04-06T05:57:10.574Z,0.43
2023-04-06T05:59:38.950Z,0.61
2023-04-06T06:02:07.780Z,0.75
2023-04-06T06:04:40.916Z,1.04
2023-04-06T06:07:08.972Z,1.19
2023-04-06T06:09:45.429Z,1.76
2023-04-06T06:12:22.875Z,1.52
2023-04-06T06:14:51.964Z,1.35
2023-04-06T06:17:21.215Z,1.65
2023-04-06T06:19:50.025Z,2.04
2023-04-06T06:22:18.299Z,2.27
2023-04-06T06:24:48.479Z,2.31
2023-04-06T06:27:19.459Z,2.31
2023-04-06T06:29:50.621Z,2.61
2023-04-06T06:32:20.317Z,2.89
2023-04-06T06:34:52.087Z,3.05
2023-04-06T06:37:21.031Z,3.19
2023-04-06T06:39:50.031Z,3.08
2023-04-06T06:42:18.841Z,3.43
2023-04-06T06:45:14.675Z,3.61
2023-04-06T06:47:43.232Z,3.74
2023-04-06T06:50:13.022Z,3.17
2023-04-06T06:52:42.266Z,3.23
2023-04-06T06:55:11.990Z,3.72
2023-04-06T06:57:39.951Z,3.87
2023-04-06T07:00:12.910Z,4.24
2023-04-06T07:02:43.748Z,4.48
2023-04-06T07:05:24.252Z,4.15
2023-04-06T07:07:57.262Z,4.81
2023-04-06T07:10:25.710Z,4.87
2023-04-06T07:12:53.813Z,5.02
2023-04-06T07:15:21.888Z,5.10
2023-04-06T07:17:53.377Z,5.35
2023-04-06T07:20:21.418Z,5.33
2023-04-06T07:22:49.552Z,5.31
2023-04-06T07:25:17.573Z,5.76
2023-04-06T07:27:45.597Z,5.08
2023-04-06T07:30:14.129Z,5.95
2023-04-06T07:32:42.207Z,5.94
2023-04-06T07:35:12.201Z,6.30
2023-04-06T07:37:40.325Z,6.55
2023-04-06T07:40:10.376Z,6.55
2023-04-06T07:42:39.113Z,6.85
2023-04-06T07:45:12.169Z,6.80
2023-04-06T07:47:40.315Z,6.48
2023-04-06T07:50:09.574Z,6.95
2023-04-06T07:52:38.902Z,6.99
2023-04-06T07:55:08.058Z,6.63
2023-04-06T07:57:36.026Z,7.39
2023-04-06T08:00:04.763Z,7.79
2023-04-06T08:02:40.292Z,7.71
2023-04-06T08:05:09.098Z,7.92
2023-04-06T08:07:38.859Z,8.05
2023-04-06T08:10:07.268Z,8.30
2023-04-06T08:12:35.926Z,8.50
2023-04-06T08:15:05.476Z,8.41
2023-04-06T08:17:35.096Z,8.41
2023-04-06T08:20:04.318Z,8.58
2023-04-06T08:22:32.246Z,8.65
2023-04-06T08:25:01.498Z,8.91
2023-04-06T08:27:29.488Z,9.01
2023-04-06T08:29:57.517Z,9.10
2023-04-06T08:32:25.651Z,9.12
2023-04-06T08:34:55.938Z,9.23
2023-04-06T08:37:23.672Z,9.64
2023-04-06T08:39:51.645Z,9.61
2023-04-06T08:42:23.934Z,9.68
2023-04-06T08:44:53.298Z,9.69
2023-04-06T08:47:24.531Z,9.82
2023-04-06T08:49:53.219Z,9.96
2023-04-06T08:52:21.807Z,9.99
2023-04-06T08:54:49.740Z,10.05
2023-04-06T08:57:18.627Z,10.09
2023-04-06T08:59:48.446Z,10.10
2023-04-06T09:02:20.304Z,10.09
2023-04-06T09:04:50.929Z,10.12
2023-04-06T09:07:19.018Z,10.05
2023-04-06T09:09:49.649Z,10.28
2023-04-06T09:12:27.925Z,10.15
2023-04-06T09:14:58.889Z,10.27
2023-04-06T09:17:28.920Z,10.31
2023-04-06T09:19:57.315Z,10.64
2023-04-06T09:22:27.971Z,10.51
2023-04-06T09:24:56.383Z,10.54
2023-04-06T09:27:33.022Z,10.71
2023-04-06T09:30:14.733Z,10.71
2023-04-06T09:32:50.700Z,10.59
2023-04-06T09:35:21.014Z,10.85
2023-04-06T09:37:49.803Z,10.50
2023-04-06T09:40:18.465Z,10.85
2023-04-06T09:42:48.401Z,11.00
2023-04-06T09:45:17.974Z,11.22
2023-04-06T09:47:47.690Z,11.25
2023-04-06T09:50:17.318Z,11.60
2023-04-06T09:52:50.497Z,11.51
2023-04-06T09:55:26.199Z,11.60
2023-04-06T09:58:00.237Z,11.54
2023-04-06T10:00:32.838Z,11.60
2023-04-06T10:03:09.301Z,11.53
2023-04-06T10:05:43.697Z,11.41
2023-04-06T10:08:12.646Z,11.58
2023-04-06T10:10:40.674Z,11.71
2023-04-06T10:13:12.069Z,11.59
2023-04-06T10:15:41.710Z,11.49
2023-04-06T10:18:10.997Z,11.39
2023-04-06T10:20:44.333Z,11.11
2023-04-06T10:23:17.289Z,11.63
2023-04-06T10:25:56.551Z,11.59
2023-04-06T10:28:25.828Z,11.66
2023-04-06T10:31:01.450Z,11.68
2023-04-06T10:33:31.295Z,11.68
2023-04-06T10:35:59.505Z,11.82
2023-04-06T10:38:41.142Z,11.93
2023-04-06T10:41:11.600Z,11.81
2023-04-06T10:43:41.351Z,11.92
2023-04-06T10:46:13.101Z,12.15
2023-04-06T10:48:42.251Z,12.13
2023-04-06T10:51:11.790Z,12.03
2023-04-06T10:53:39.878Z,12.02
2023-04-06T10:56:12.858Z,11.53
2023-04-06T10:58:45.770Z,11.71
2023-04-06T11:01:17.400Z,11.75
2023-04-06T11:03:46.624Z,11.98
2023-04-06T11:06:20.673Z,12.10
2023-04-06T11:08:48.782Z,11.99
2023-04-06T11:11:19.528Z,12.07
2023-04-06T11:13:49.177Z,12.21
2023-04-06T11:16:20.586Z,12.03
2023-04-06T11:18:53.441Z,12.01
2023-04-06T11:21:21.996Z,12.09
2023-04-06T11:23:49.994Z,12.32
2023-04-06T11:26:18.140Z,12.46
2023-04-06T11:28:46.349Z,12.59
2023-04-06T11:31:14.387Z,12.41
2023-04-06T11:33:43.779Z,12.38
2023-04-06T11:38:41.443Z,11.59
2023-04-06T11:41:09.468Z,12.17
2023-04-06T11:43:37.577Z,12.33
2023-04-06T11:46:07.679Z,12.31
2023-04-06T11:48:48.073Z,12.52
2023-04-06T11:51:23.638Z,12.64
2023-04-06T11:53:51.869Z,12.72
2023-04-06T11:56:27.568Z,12.62
2023-04-06T11:58:57.750Z,12.40
2023-04-06T12:01:26.322Z,12.49
2023-04-06T12:03:56.086Z,12.82
2023-04-06T12:06:24.999Z,12.92
2023-04-06T12:08:52.978Z,12.78
2023-04-06T12:11:22.810Z,12.71
2023-04-06T12:13:51.168Z,12.98
2023-04-06T12:16:20.216Z,12.98
2023-04-06T12:18:48.466Z,12.81
2023-04-06T12:21:17.807Z,12.87
2023-04-06T12:23:45.718Z,12.86
2023-04-06T12:26:13.610Z,12.99
2023-04-06T12:28:41.732Z,13.21
2023-04-06T12:31:16.172Z,13.39
2023-04-06T12:33:45.925Z,13.40
2023-04-06T12:36:14.661Z,13.08
2023-04-06T12:38:46.680Z,13.14
2023-04-06T12:41:14.694Z,13.06
2023-04-06T12:43:43.593Z,13.04
2023-04-06T12:46:12.397Z,12.93
2023-04-06T12:48:40.833Z,12.86
2023-04-06T12:51:09.160Z,12.85
2023-04-06T12:53:38.129Z,13.21
2023-04-06T12:56:14.320Z,13.13
2023-04-06T12:58:43.137Z,12.84
2023-04-06T13:01:11.733Z,12.86
2023-04-06T13:03:39.814Z,12.37
2023-04-06T13:06:09.261Z,12.87
2023-04-06T13:08:38.232Z,12.95
2023-04-06T13:11:09.817Z,13.08
2023-04-06T13:13:38.441Z,13.14
2023-04-06T13:16:08.921Z,12.84
2023-04-06T13:18:39.502Z,13.06
2023-04-06T13:21:08.124Z,13.14
2023-04-06T13:23:36.677Z,13.39
2023-04-06T13:26:07.753Z,13.16
2023-04-06T13:28:39.688Z,13.34
2023-04-06T13:31:08.105Z,13.51
2023-04-06T13:33:36.410Z,13.46
2023-04-06T13:36:05.400Z,13.20
2023-04-06T13:38:34.591Z,13.13
2023-04-06T13:41:02.572Z,13.43
2023-04-06T13:43:31.863Z,13.24
2023-04-06T13:46:01.763Z,13.24
2023-04-06T13:48:29.745Z,13.28
2023-04-06T13:50:57.720Z,13.27
2023-04-06T13:53:25.494Z,12.89
2023-04-06T13:55:56.280Z,13.32
2023-04-06T13:58:24.383Z,13.47
2023-04-06T14:00:53.653Z,13.44
2023-04-06T14:03:22.277Z,13.22
2023-04-06T14:05:50.347Z,13.37
2023-04-06T14:08:18.179Z,12.89
2023-04-06T14:10:46.109Z,13.28
2023-04-06T14:13:13.923Z,13.37
2023-04-06T14:15:41.837Z,13.34
2023-04-06T14:18:11.418Z,13.58
2023-04-06T14:20:39.204Z,13.61
2023-04-06T14:23:07.201Z,13.54
2023-04-06T14:25:35.881Z,13.56
2023-04-06T14:28:04.218Z,13.42
2023-04-06T14:30:32.601Z,13.45
2023-04-06T14:33:00.753Z,13.56
2023-04-06T14:35:31.658Z,13.65
2023-04-06T14:38:00.012Z,13.69
2023-04-06T14:40:27.882Z,13.71
2023-04-06T14:42:56.691Z,13.68
2023-04-06T14:45:24.535Z,13.65
2023-04-06T14:47:52.425Z,13.66
2023-04-06T14:50:20.202Z,13.61
2023-04-06T14:52:49.502Z,13.39
2023-04-06T14:55:17.418Z,13.46
2023-04-06T14:57:45.273Z,13.37
2023-04-06T15:00:14.382Z,13.25
2023-04-06T15:02:44.198Z,13.42
2023-04-06T15:05:12.659Z,13.29
2023-04-06T15:07:40.520Z,13.40
2023-04-06T15:10:12.364Z,12.77
2023-04-06T15:12:40.336Z,13.36
2023-04-06T15:15:09.059Z,13.40
2023-04-06T15:17:36.902Z,13.14
2023-04-06T15:20:05.519Z,13.33
2023-04-06T15:22:33.453Z,13.29
2023-04-06T15:25:02.341Z,13.29
2023-04-06T15:27:31.644Z,13.36
2023-04-06T15:30:00.595Z,13.37
2023-04-06T15:32:28.690Z,13.36
2023-04-06T15:34:58.069Z,13.37
2023-04-06T15:37:25.939Z,13.41
2023-04-06T15:39:53.924Z,13.36
2023-04-06T15:42:21.741Z,13.24
2023-04-06T15:44:50.953Z,13.11
2023-04-06T15:47:18.754Z,13.41
2023-04-06T15:49:46.659Z,13.30
2023-04-06T15:52:14.482Z,13.25
2023-04-06T15:54:42.359Z,13.34
2023-04-06T15:57:10.312Z,13.36
2023-04-06T15:59:38.077Z,12.97
2023-04-06T16:02:07.533Z,13.21
2023-04-06T16:04:35.622Z,13.06
2023-04-06T16:07:03.631Z,13.02
2023-04-06T16:09:31.485Z,12.99
2023-04-06T16:11:59.469Z,13.05
2023-04-06T16:14:27.352Z,12.85
2023-04-06T16:16:55.307Z,12.84
2023-04-06T16:19:24.587Z,12.97
2023-04-06T16:21:52.309Z,12.93
2023-04-06T16:24:20.418Z,12.82
2023-04-06T16:26:49.404Z,12.72
2023-04-06T16:29:18.048Z,12.69
2023-04-06T16:31:47.888Z,12.84
2023-04-06T16:34:15.930Z,12.79
2023-04-06T16:36:45.146Z,12.63
2023-04-06T16:39:13.153Z,12.70
2023-04-06T16:41:40.976Z,12.45
2023-04-06T16:44:09.270Z,12.57
2023-04-06T16:46:38.335Z,12.41
2023-04-06T16:49:06.965Z,12.05
2023-04-06T16:51:34.779Z,12.42
2023-04-06T16:54:04.184Z,12.38
2023-04-06T16:56:33.561Z,12.19
2023-04-06T16:59:01.445Z,12.16
2023-04-06T17:01:30.199Z,12.28
2023-04-06T17:03:58.512Z,12.33
2023-04-06T17:06:27.725Z,12.28
2023-04-06T17:08:55.730Z,12.22
2023-04-06T17:11:48.547Z,12.07
2023-04-06T17:14:12.997Z,11.98
2023-04-06T17:16:40.930Z,11.99
2023-04-06T17:19:08.925Z,11.93
2023-04-06T17:21:36.954Z,11.92
2023-04-06T17:24:05.064Z,11.79
2023-04-06T17:26:34.460Z,11.62
2023-04-06T17:29:02.380Z,11.59
2023-04-06T17:31:30.323Z,11.62
2023-04-06T17:33:58.659Z,11.61
2023-04-06T17:36:27.868Z,11.60
2023-04-06T17:38:55.815Z,11.32
2023-04-06T17:41:24.155Z,11.48
2023-04-06T17:43:53.347Z,11.34
2023-04-06T17:46:21.595Z,11.26
2023-04-06T17:48:50.805Z,11.33
2023-04-06T17:51:19.443Z,11.15
2023-04-06T17:53:47.828Z,11.24
2023-04-06T17:56:15.703Z,11.01
2023-04-06T17:58:43.559Z,11.06
2023-04-06T18:01:12.975Z,11.05
2023-04-06T18:03:41.179Z,11.10
2023-04-06T18:06:16.679Z,11.02
2023-04-06T18:08:44.687Z,11.08
2023-04-06T18:11:17.043Z,11.05
2023-04-06T18:13:44.991Z,11.03
2023-04-06T18:16:14.602Z,10.92
2023-04-06T18:18:42.551Z,10.80
2023-04-06T18:21:10.380Z,10.96
2023-04-06T18:23:38.577Z,10.92
2023-04-06T18:26:07.421Z,10.82
2023-04-06T18:28:35.490Z,10.80
2023-04-06T18:31:03.389Z,10.89
2023-04-06T18:33:33.830Z,10.62
2023-04-06T18:36:01.620Z,10.44
2023-04-06T18:38:29.524Z,10.43
2023-04-06T18:40:57.775Z,10.44
2023-04-06T18:43:26.244Z,10.48
2023-04-06T18:45:54.248Z,10.40
2023-04-06T18:48:22.232Z,10.22
2023-04-06T18:50:54.878Z,10.38
2023-04-06T18:53:22.825Z,10.38
2023-04-06T18:55:51.476Z,10.32
2023-04-06T18:58:19.367Z,10.37
2023-04-06T19:00:47.233Z,10.38
2023-04-06T19:03:15.395Z,10.03
2023-04-06T19:05:44.334Z,10.09
2023-04-06T19:08:13.661Z,10.10
2023-04-06T19:10:41.595Z,9.84
2023-04-06T19:13:09.969Z,9.97
2023-04-06T19:15:41.001Z,9.92
2023-04-06T19:18:08.920Z,9.82
2023-04-06T19:20:36.818Z,9.79
2023-04-06T19:23:04.860Z,9.77
2023-04-06T19:25:34.284Z,9.67
2023-04-06T19:28:02.171Z,9.45
2023-04-06T19:30:29.986Z,9.36
2023-04-06T19:32:57.975Z,9.63
2023-04-06T19:35:25.761Z,9.63
2023-04-06T19:37:53.848Z,9.52
2023-04-06T19:40:21.681Z,9.15
2023-04-06T19:42:50.952Z,9.38
2023-04-06T19:45:18.883Z,9.23
2023-04-06T19:47:46.719Z,9.34
2023-04-06T19:50:15.450Z,9.17
2023-04-06T19:52:43.796Z,8.98
2023-04-06T19:55:11.667Z,9.03
2023-04-06T19:57:39.664Z,9.03
2023-04-06T20:00:10.987Z,9.09
2023-04-06T20:02:39.928Z,9.02
2023-04-06T20:05:08.311Z,9.14
2023-04-06T20:07:37.804Z,8.95
2023-04-06T20:10:07.913Z,9.06
2023-04-06T20:12:36.129Z,8.88
2023-04-06T20:15:04.533Z,8.32
2023-04-06T20:17:33.849Z,8.75
2023-04-06T20:20:01.732Z,8.68
2023-04-06T20:22:29.603Z,8.16
2023-04-06T20:24:57.437Z,8.52
2023-04-06T20:27:25.570Z,8.44
2023-04-06T20:29:53.574Z,8.52
2023-04-06T20:32:21.857Z,8.51
2023-04-06T20:34:52.618Z,7.65
2023-04-06T20:37:21.378Z,8.50
2023-04-06T20:39:49.374Z,8.31
2023-04-06T20:42:17.947Z,8.29
2023-04-06T20:44:46.795Z,8.27
2023-04-06T20:47:14.874Z,8.17
2023-04-06T20:49:43.188Z,8.11
2023-04-06T20:52:13.061Z,8.11
2023-04-06T20:54:40.946Z,8.16
2023-04-06T20:57:08.915Z,8.15
2023-04-06T20:59:37.694Z,7.96
2023-04-06T21:02:05.772Z,7.96
2023-04-06T21:04:35.281Z,7.91
2023-04-06T21:07:04.698Z,7.79
2023-04-06T21:09:36.061Z,7.80
2023-04-06T21:12:04.082Z,7.72
2023-04-06T21:14:32.075Z,7.79
2023-04-06T21:17:00.741Z,7.74
2023-04-06T21:19:29.258Z,7.69
2023-04-06T21:21:57.255Z,7.88
2023-04-06T21:24:25.782Z,7.91
2023-04-06T21:26:55.162Z,7.60
2023-04-06T21:29:23.136Z,7.85
2023-04-06T21:31:50.996Z,7.13
2023-04-06T21:34:19.100Z,7.62
2023-04-06T21:36:47.078Z,7.73
2023-04-06T21:39:14.944Z,7.53
2023-04-06T21:41:42.808Z,7.51
2023-04-06T21:44:11.966Z,7.49
2023-04-06T21:46:39.911Z,7.51
2023-04-06T21:49:07.879Z,7.63
2023-04-06T21:51:35.991Z,7.69
2023-04-06T21:54:03.823Z,7.41
2023-04-06T21:56:31.763Z,7.73
2023-04-06T21:58:59.825Z,7.62
2023-04-06T22:01:29.499Z,7.48
2023-04-06T22:03:57.782Z,7.49
2023-04-06T22:06:26.013Z,7.38
2023-04-06T22:08:53.885Z,7.37
2023-04-06T22:11:21.848Z,7.41
2023-04-06T22:13:49.819Z,7.41
2023-04-06T22:16:18.564Z,7.39
2023-04-06T22:18:47.813Z,7.15
2023-04-06T22:21:15.743Z,7.30
2023-04-06T22:23:43.832Z,7.21
2023-04-06T22:26:12.664Z,7.10
2023-04-06T22:28:40.650Z,7.22
2023-04-06T22:31:08.466Z,7.25
2023-04-06T22:33:36.346Z,7.33
2023-04-06T22:36:06.205Z,7.30
2023-04-06T22:38:34.162Z,7.31
2023-04-06T22:41:02.013Z,7.32
2023-04-06T22:43:29.827Z,7.30
2023-04-06T22:45:57.750Z,7.12
2023-04-06T22:48:25.770Z,7.09
2023-04-06T22:50:53.845Z,7.13
2023-04-06T22:53:22.986Z,7.22
2023-04-06T22:55:50.838Z,7.21
2023-04-06T22:58:18.821Z,7.01
2023-04-06T23:00:46.683Z,7.09
2023-04-06T23:03:14.707Z,7.10
2023-04-06T23:05:42.774Z,7.08
2023-04-06T23:08:10.826Z,7.21
2023-04-06T23:10:42.052Z,7.21
2023-04-06T23:13:10.085Z,7.29
2023-04-06T23:15:38.031Z,7.36
2023-04-06T23:18:06.189Z,7.35
2023-04-06T23:20:34.113Z,7.36
2023-04-06T23:23:01.972Z,7.31
2023-04-06T23:25:29.795Z,7.27
2023-04-06T23:27:58.960Z,7.14
2023-04-06T23:30:26.798Z,7.22
2023-04-06T23:32:54.642Z,7.32
2023-04-06T23:35:22.509Z,7.30
2023-04-06T23:37:50.374Z,7.33
2023-04-06T23:40:18.437Z,7.29
2023-04-06T23:42:46.228Z,7.24
2023-04-06T23:45:15.693Z,7.20
2023-04-06T23:47:43.550Z,7.19
2023-04-06T23:50:11.937Z,7.35
2023-04-06T23:52:39.713Z,7.34
2023-04-06T23:55:08.472Z,7.30
2023-04-06T23:57:36.407Z,6.96
